Aérodrome :
LOGIN :

S'inscrire | Disclaimer

   EN    FR    IT 

 










Légende :    VFR   VFR Marginal   IFR   IFR Intensif   IFR Très Intensif
Visi : 
Plafond : 
>= 8 km
>= 3000ft
5 à 8 km
1000 à 3000 ft
1500m à 5 km
500 à 1000 ft
800 à 1500m
200 à 500 ft
< 800m
< 200 ft
Symboles :   Orages  Brouillard  Fortes neiges  Fortes précipitations  Vent > 20 kt
SIGMETs :   Divers  Orages  Givrage  Turbulence  Onde Orograph.  Cendres Volcan.






- Altitude de l'aérodrome : 137 ft
- Code IATA : ARN


ESSA - Stockholm-Arlanda

DERNIER METAR :
  • 131250Z VRB02KT 0650 -DZ BR OVC002 04/04 Q1003 R01L/29//95 R08/29//95 R01R/29//95 TEMPO 2000 BKN002

METARs EXPIRÉS :
  • 131220Z 05003KT 0350 R01L/P1500N R19R/P1500N R01R/P1500N R19L/P1500N -DZ OVC002 04/04 Q1003 R01L/29//95 R08/29//95 R01R/29//95 TEMPO 2000 BKN002
  • 131150Z 07004KT 0900 BCFG OVC002 OVC017 04/04 Q1003 R01L/29//95 R08/29//95 R01R/29//95 TEMPO 4000
  • 131120Z 06004KT 050V110 2100 -RA BR BKN002 BKN021 04/04 Q1003 R01L/29//95 R08/29//95 R01R/29//95 TEMPO 4000
  • 131050Z VRB03KT 3400 -DZ OVC002 04/04 Q1003 R01L/29//95 R08/29//95 R01R/29//95 TEMPO 4000
  • 131020Z 06003KT 4200 DZ FEW017 BKN025 OVC035 04/04 Q1003 R01L/29//95 R08/29//95 R01R/29//95 TEMPO 4000
  • 130950Z 06005KT 2500 -RA BR BKN002 BKN026 04/04 Q1003 R01L/29//95 R08/29//95 R01R/29//95 TEMPO 6000

TAF AMD TAF ESSA
Valide du 13 à 12h jusqu'au 14 à 12h UTC


131154Z 1312/1412 06004KT 2000 -RA BR BKN020
TEMPO 1312/1401 0400 BCFG VV002
BECMG 1401/1403 5000 RA BKN010
TEMPO 1403/1410 36010KT 2000 BKN005
PROB40 1410/1412 33010KT 1200 RASN VV003



MET'MAP, la Météo Aéronautique d'un coup d'oeil ! - Copyright ORBIFLY Décembre 2007 - Disclaimer

ORBIFLY MET'MAP TEAM :

Programmation & Développement : Alexandra Zaïnal
Conception & Développement : Baudouin d'Aumeries
Co-Programmation & Développement : Marc-Olivier Méhu
Soutien technique & logistique : Manuel Goepfert

Contact : metmap@orbifly.com




SOURCES & CREDITS :

   NOAA